Aviation Digital Data Service (ADDS)

Output produced by METARs form (1602 UTC 21 September 2017)
found at http://www.aviationweather.gov/adds/metars/
 
LRCK 211530Z 27013KT CAVOK 21/08 Q1010 NOSIG
TAF LRCK 211100Z 2112/2212 27016KT 9999 SCT030 
     PROB30 
     TEMPO 2203/2207 BKN015 
     TEMPO 2206/2212 26018G28KT
       
LRTC 211530Z 25010KT CAVOK 22/07 Q1009
TAF LRTC 211400Z 2115/2124 25012KT CAVOK
       
LRBC 211530Z 00000KT 9999 FEW035 21/15 Q1008
TAF LRBC 211400Z 2115/2124 VRB04KT 9999 SCT035 
     BECMG 2119/2121 5000 BR 
     TEMPO 2122/2124 3000 BR
       
LRIA 211530Z VRB01KT CAVOK 20/12 Q1008
TAF LRIA 211400Z 2115/2124 VRB03KT 9999 SCT025 
     BECMG 2120/2122 5000 BR
       
LRSV 211530Z 06004KT 9999 FEW030 17/14 Q1009
TAF LRSV 211400Z 2115/2124 VRB04KT 9999 SCT025 
     PROB40 
     TEMPO 2116/2119 5000 -SHRA SCT025 SCT030CB 
     BECMG 2119/2121 5000 BR 
     TEMPO 2121/2123 3000 BR BKN005 
     BECMG 2122/2124 32010KT
       
LROP 211530Z 27011KT CAVOK 18/08 Q1010 R26L/09//95 R26R/09//95 NOSIG
TAF LROP 211100Z 2112/2212 26012KT 9999 SCT030
       
LRBS 211530Z 28010KT 250V360 CAVOK 20/06 Q1011 NOSIG
TAF LRBS 211100Z 2112/2212 26012KT 9999 SCT030
       
LRCV 211530Z 26016KT CAVOK 15/08 Q1012
TAF LRCV 211400Z 2115/2124 26014KT 9999 SCT045 
     TEMPO 2115/2117 27018G28KT
       
LRSB 211530Z VRB02KT 9999 -SHRA FEW015 FEW030CB BKN062 13/11 Q1011 R27/29//95 NOSIG
TAF LRSB 211100Z 2112/2212 VRB04KT 9999 SCT010 SCT030CB BKN055 
     PROB40 
     TEMPO 2112/2116 5000 TSRA 
     BECMG 2116/2118 SCT055 
     BECMG 2120/2122 3000 BR BKN010 
     BECMG 2122/2124 1500 BR BKN005 
     TEMPO 2200/2204 0800 FG BKN002 
     BECMG 2204/2206 5000 BR SCT010 
     BECMG 2207/2209 9999 NSW
       
LRAR 211530Z 22003KT 9000 -SHRA FEW008 SCT025CB BKN030 12/12 Q1012 RERA R09/29//95
TAF LRAR 211400Z 2115/2124 23010KT 9999 -RA BKN010 BKN025 
     TEMPO 2115/2117 5000 -SHRA SCT010 SCT025CB BKN030 
     BECMG 2118/2120 5000 -RA BR 
     TEMPO 2120/2124 3000 -RA BR BKN005 OVC020
       
LRCL 211530Z 35010KT 9999 FEW010 SCT033 FEW050CB 14/10 Q1010
TAF LRCL 211400Z 2115/2124 35010KT 9999 SCT045 
     PROB40 
     TEMPO 2115/2117 5000 TSRA SCT045CB 
     BECMG 2117/2119 VRB04KT 
     BECMG 2122/2124 3000 BR BKN005
       
LRTR 211530Z 25006KT 9999 -SHRA SCT005 SCT025CB 12/11 Q1013 RESHRA R11/290094 NOSIG
TAF LRTR 211100Z 2112/2212 27010KT 9999 -RA BKN010 BKN030 
     TEMPO 2112/2116 5000 -RA SCT010 FEW025CB BKN030 
     BECMG 2118/2120 3000 -RA BR 
     TEMPO 2121/2206 1500 RA BR BKN005 OVC025 
     BECMG 2208/2210 9999 NSW SCT015 BKN030
       
LRTM 211530Z 21013KT 9999 SCT036 16/08 Q1010
TAF LRTM 211400Z 2115/2124 22012KT 9999 SCT035 
     TEMPO 2115/2117 SCT035CB 
     BECMG 2122/2124 3000 BR
       
LRBM 211530Z 29002KT 9999 -SHRA FEW032CB SCT036 13/12 Q1011
TAF LRBM 211400Z 2115/2124 VRB04KT 9999 BKN030 
     TEMPO 2115/2118 28010KT 5000 -SHRA SCT015 SCT030CB BKN040
       
LRSM 211530Z 25010KT 9999 FEW038 15/09 Q1011
TAF LRSM 211400Z 2115/2124 23010KT 9999 BKN030 
     BECMG 2116/2118 VRB04KT
       
LROD 211530Z 18012KT 9999 -RA FEW010 BKN031 12/10 Q1011 R01/29//95
TAF LROD 211400Z 2115/2124 20014KT 9999 SCT010 BKN030 
     BECMG 2117/2119 5000 -RA BR BKN010 OVC025 
     PROB30 
     TEMPO 2118/2124 3000 -RA BR BKN005 OVC020 
     BECMG 2121/2123 14008KT
       
LRCT 211500Z 22012KT 9999 BKN060 17/08 Q1010 BLU BLU